createdAt,value
2023-02-24T00:01:39.399Z,87.40
2023-02-24T00:04:09.961Z,88.60
2023-02-24T00:06:41.235Z,87.90
2023-02-24T00:09:11.232Z,87.40
2023-02-24T00:11:44.474Z,87.10
2023-02-24T00:14:16.022Z,87.20
2023-02-24T00:16:45.365Z,86.00
2023-02-24T00:19:16.321Z,86.90
2023-02-24T00:21:44.963Z,85.90
2023-02-24T00:24:13.609Z,86.60
2023-02-24T00:26:43.426Z,86.70
2023-02-24T00:29:13.713Z,85.10
2023-02-24T00:31:43.268Z,85.40
2023-02-24T00:34:15.152Z,85.40
2023-02-24T00:36:43.430Z,86.10
2023-02-24T00:39:12.659Z,85.50
2023-02-24T00:41:44.218Z,85.30
2023-02-24T00:44:14.397Z,85.50
2023-02-24T00:46:45.701Z,86.10
2023-02-24T00:49:17.322Z,86.30
2023-02-24T00:51:48.622Z,86.90
2023-02-24T00:54:18.876Z,86.70
2023-02-24T00:56:50.443Z,86.70
2023-02-24T00:59:20.761Z,86.30
2023-02-24T01:01:50.467Z,86.90
2023-02-24T01:04:20.125Z,86.40
2023-02-24T01:06:50.248Z,86.60
2023-02-24T01:09:19.742Z,87.20
2023-02-24T01:12:08.017Z,87.90
2023-02-24T01:14:37.297Z,86.20
2023-02-24T01:17:05.917Z,86.40
2023-02-24T01:19:35.627Z,86.50
2023-02-24T01:22:05.913Z,85.70
2023-02-24T01:24:35.986Z,86.30
2023-02-24T01:27:06.423Z,86.90
2023-02-24T01:29:39.306Z,86.90
2023-02-24T01:32:08.007Z,86.60
2023-02-24T01:34:36.378Z,86.90
2023-02-24T01:37:04.665Z,86.80
2023-02-24T01:39:33.461Z,87.30
2023-02-24T01:42:02.431Z,87.50
2023-02-24T01:45:04.334Z,87.70
2023-02-24T01:47:34.251Z,86.90
2023-02-24T01:50:03.143Z,86.30
2023-02-24T01:52:32.751Z,85.80
2023-02-24T01:55:07.307Z,86.10
2023-02-24T01:57:38.750Z,86.20
2023-02-24T02:00:11.940Z,86.00
2023-02-24T02:02:44.581Z,86.40
2023-02-24T02:05:14.680Z,86.70
2023-02-24T02:07:43.574Z,87.00
2023-02-24T02:10:12.829Z,87.70
2023-02-24T02:12:44.943Z,87.60
2023-02-24T02:15:14.507Z,87.60
2023-02-24T02:17:52.557Z,87.60
2023-02-24T02:20:43.386Z,87.30
2023-02-24T02:23:38.633Z,87.40
2023-02-24T02:26:20.103Z,87.70
2023-02-24T02:29:10.474Z,88.30
2023-02-24T02:32:07.978Z,88.80
2023-02-24T02:34:47.792Z,89.00
2023-02-24T02:37:20.905Z,89.70
2023-02-24T02:39:52.642Z,90.00
2023-02-24T02:42:27.574Z,90.20
2023-02-24T02:45:05.301Z,90.40
2023-02-24T02:47:37.947Z,90.50
2023-02-24T02:50:18.727Z,90.70
2023-02-24T02:52:53.961Z,90.90
2023-02-24T02:55:25.458Z,91.10
2023-02-24T02:57:56.158Z,91.30
2023-02-24T03:00:29.332Z,91.50
2023-02-24T03:03:03.372Z,91.60
2023-02-24T03:05:37.293Z,91.80
2023-02-24T03:08:11.555Z,91.90
2023-02-24T03:10:41.457Z,92.20
2023-02-24T03:13:10.890Z,92.30
2023-02-24T03:15:42.347Z,92.40
2023-02-24T03:18:18.512Z,92.40
2023-02-24T03:20:51.827Z,92.50
2023-02-24T03:23:25.251Z,92.60
2023-02-24T03:25:58.734Z,92.70
2023-02-24T03:28:34.192Z,92.50
2023-02-24T03:31:05.711Z,92.50
2023-02-24T03:33:37.052Z,92.60
2023-02-24T03:36:07.265Z,92.60
2023-02-24T03:38:38.348Z,92.60
2023-02-24T03:41:11.358Z,92.70
2023-02-24T03:43:43.035Z,92.80
2023-02-24T03:46:11.620Z,92.80
2023-02-24T03:48:45.327Z,92.80
2023-02-24T03:51:18.331Z,92.80
2023-02-24T03:53:57.846Z,92.80
2023-02-24T03:56:34.575Z,92.90
2023-02-24T03:59:13.053Z,92.80
2023-02-24T04:01:48.104Z,92.80
2023-02-24T04:04:20.724Z,92.70
2023-02-24T04:06:56.115Z,92.80
2023-02-24T04:09:29.489Z,92.80
2023-02-24T04:12:03.806Z,93.00
2023-02-24T04:14:35.416Z,93.00
2023-02-24T04:17:08.962Z,93.20
2023-02-24T04:19:40.600Z,93.30
2023-02-24T04:22:11.924Z,93.40
2023-02-24T04:24:42.289Z,93.50
2023-02-24T04:27:12.482Z,93.60
2023-02-24T04:29:47.247Z,93.70
2023-02-24T04:32:17.921Z,93.80
2023-02-24T04:34:46.954Z,93.90
2023-02-24T04:37:16.610Z,93.90
2023-02-24T04:39:46.181Z,93.80
2023-02-24T04:42:14.428Z,93.90
2023-02-24T04:44:42.936Z,93.90
2023-02-24T04:47:12.175Z,93.90
2023-02-24T04:49:41.220Z,93.90
2023-02-24T04:52:10.459Z,94.00
2023-02-24T04:54:40.182Z,94.00
2023-02-24T04:57:10.666Z,94.00
2023-02-24T04:59:39.046Z,94.10
2023-02-24T05:02:07.636Z,94.10
2023-02-24T05:04:38.901Z,94.10
2023-02-24T05:07:07.392Z,94.20
2023-02-24T05:09:35.711Z,94.30
2023-02-24T05:12:06.066Z,94.50
2023-02-24T05:14:34.739Z,94.60
2023-02-24T05:17:03.049Z,94.60
2023-02-24T05:19:48.718Z,94.70
2023-02-24T05:22:17.768Z,95.00
2023-02-24T05:24:48.058Z,95.00
2023-02-24T05:27:18.501Z,95.10
2023-02-24T05:29:46.796Z,95.20
2023-02-24T05:32:17.030Z,95.40
2023-02-24T05:34:45.302Z,95.40
2023-02-24T05:37:16.579Z,95.60
2023-02-24T05:39:44.958Z,95.70
2023-02-24T05:42:13.345Z,95.90
2023-02-24T05:44:42.971Z,96.00
2023-02-24T05:47:11.580Z,96.00
2023-02-24T05:49:39.985Z,96.00
2023-02-24T05:52:10.106Z,96.00
2023-02-24T05:54:40.258Z,95.90
2023-02-24T05:57:11.778Z,95.90
2023-02-24T05:59:40.482Z,95.90
2023-02-24T06:02:12.517Z,95.90
2023-02-24T06:04:46.473Z,95.90
2023-02-24T06:07:19.346Z,95.80
2023-02-24T06:09:50.145Z,95.80
2023-02-24T06:12:19.320Z,95.80
2023-02-24T06:14:47.735Z,95.80
2023-02-24T06:17:18.767Z,95.80
2023-02-24T06:19:49.366Z,95.60
2023-02-24T06:22:19.718Z,95.60
2023-02-24T06:24:49.467Z,95.40
2023-02-24T06:27:19.718Z,95.20
2023-02-24T06:29:50.011Z,95.00
2023-02-24T06:32:20.438Z,94.90
2023-02-24T06:34:48.745Z,94.90
2023-02-24T06:37:18.334Z,94.90
2023-02-24T06:39:47.252Z,95.10
2023-02-24T06:42:15.668Z,95.20
2023-02-24T06:44:43.899Z,95.30
2023-02-24T06:47:14.385Z,95.60
2023-02-24T06:49:43.977Z,95.90
2023-02-24T06:52:18.600Z,96.10
2023-02-24T06:54:48.995Z,96.50
2023-02-24T06:57:17.733Z,96.80
2023-02-24T06:59:46.417Z,97.00
2023-02-24T07:02:14.796Z,97.10
2023-02-24T07:04:44.828Z,97.40
2023-02-24T07:07:14.778Z,97.60
2023-02-24T07:09:45.513Z,97.80
2023-02-24T07:12:15.657Z,98.20
2023-02-24T07:14:44.119Z,98.40
2023-02-24T07:17:14.757Z,98.50
2023-02-24T07:19:44.486Z,98.60
2023-02-24T07:22:14.734Z,98.80
2023-02-24T07:24:46.507Z,99.00
2023-02-24T07:27:22.660Z,99.30
2023-02-24T07:29:53.250Z,99.70
2023-02-24T07:32:22.772Z,99.90
2023-02-24T07:34:53.071Z,99.90
2023-02-24T07:37:23.635Z,99.90
2023-02-24T07:39:51.911Z,99.90
2023-02-24T07:42:20.293Z,99.90
2023-02-24T07:44:49.342Z,99.90
2023-02-24T07:47:17.933Z,99.90
2023-02-24T07:49:46.376Z,99.90
2023-02-24T07:52:16.252Z,99.90
2023-02-24T07:54:44.517Z,99.90
2023-02-24T07:57:14.273Z,99.90
2023-02-24T07:59:47.420Z,99.90
2023-02-24T08:02:16.682Z,99.90
2023-02-24T08:04:51.563Z,99.90
2023-02-24T08:07:25.054Z,99.90
2023-02-24T08:10:14.421Z,99.90
2023-02-24T08:12:49.078Z,99.90
2023-02-24T08:15:24.353Z,99.90
2023-02-24T08:17:55.480Z,99.90
2023-02-24T08:20:29.683Z,99.90
2023-02-24T08:22:59.464Z,99.90
2023-02-24T08:25:35.995Z,99.90
2023-02-24T08:28:09.399Z,99.90
2023-02-24T08:30:40.705Z,99.90
2023-02-24T08:33:10.918Z,99.90
2023-02-24T08:35:44.694Z,99.90
2023-02-24T08:38:16.925Z,99.90
2023-02-24T08:40:54.955Z,99.90
2023-02-24T08:43:33.814Z,99.90
2023-02-24T08:46:06.601Z,99.90
2023-02-24T08:48:42.402Z,99.90
2023-02-24T08:51:15.115Z,99.90
2023-02-24T08:53:46.816Z,99.90
2023-02-24T08:56:24.301Z,99.90
2023-02-24T08:58:57.170Z,99.90
2023-02-24T09:01:34.523Z,99.90
2023-02-24T09:04:04.745Z,99.90
2023-02-24T09:06:39.475Z,99.90
2023-02-24T09:09:18.637Z,99.90
2023-02-24T09:11:47.449Z,99.90
2023-02-24T09:14:26.809Z,99.90
2023-02-24T09:17:07.068Z,99.90
2023-02-24T09:20:00.608Z,99.90
2023-02-24T09:22:33.539Z,99.90
2023-02-24T09:25:19.050Z,99.90
2023-02-24T09:27:52.523Z,99.90
2023-02-24T09:30:38.728Z,99.90
2023-02-24T09:33:18.114Z,99.90
2023-02-24T09:35:48.456Z,99.90
2023-02-24T09:38:17.851Z,99.90
2023-02-24T09:40:52.291Z,99.90
2023-02-24T09:43:24.525Z,99.90
2023-02-24T09:45:58.596Z,99.90
2023-02-24T09:48:43.663Z,99.90
2023-02-24T09:51:23.010Z,99.90
2023-02-24T09:53:56.699Z,99.90
2023-02-24T09:56:32.792Z,99.90
2023-02-24T09:59:10.467Z,99.90
2023-02-24T10:01:44.101Z,99.90
2023-02-24T10:04:40.739Z,99.90
2023-02-24T10:07:13.773Z,99.90
2023-02-24T10:09:44.704Z,99.90
2023-02-24T10:12:19.403Z,99.90
2023-02-24T10:14:53.040Z,99.90
2023-02-24T10:17:24.145Z,99.90
2023-02-24T10:20:01.194Z,99.90
2023-02-24T10:22:39.869Z,99.90
2023-02-24T10:25:23.473Z,99.90
2023-02-24T10:28:03.244Z,99.90
2023-02-24T10:30:41.990Z,99.90
2023-02-24T10:33:25.512Z,99.90
2023-02-24T10:36:11.694Z,99.90
2023-02-24T10:38:45.583Z,99.90
2023-02-24T10:41:15.497Z,99.90
2023-02-24T10:43:56.098Z,99.90
2023-02-24T10:46:41.106Z,99.90
2023-02-24T10:49:16.825Z,99.90
2023-02-24T10:51:54.497Z,99.90
2023-02-24T10:54:44.928Z,99.90
2023-02-24T10:57:23.242Z,99.90
2023-02-24T11:00:19.919Z,99.90
2023-02-24T11:03:11.365Z,99.90
2023-02-24T11:05:55.847Z,99.90
2023-02-24T11:08:54.466Z,99.90
2023-02-24T11:11:29.884Z,99.90
2023-02-24T11:14:16.814Z,99.90
2023-02-24T11:17:06.162Z,99.90
2023-02-24T11:19:40.343Z,99.90
2023-02-24T11:22:09.450Z,99.90
2023-02-24T11:24:38.677Z,99.90
2023-02-24T11:27:07.721Z,99.90
2023-02-24T11:29:50.197Z,99.90
2023-02-24T11:32:40.421Z,99.90
2023-02-24T11:35:14.087Z,99.90
2023-02-24T11:37:49.742Z,99.90
2023-02-24T11:40:23.179Z,99.90
2023-02-24T11:42:54.361Z,99.90
2023-02-24T11:45:30.560Z,99.90
2023-02-24T11:48:03.384Z,99.90
2023-02-24T11:50:43.648Z,99.90
2023-02-24T11:53:28.518Z,99.90
2023-02-24T11:56:01.760Z,99.90
2023-02-24T11:58:36.425Z,99.90
2023-02-24T12:01:10.719Z,99.90
2023-02-24T12:03:46.007Z,99.90
2023-02-24T12:06:21.322Z,99.90
2023-02-24T12:08:53.880Z,99.90
2023-02-24T12:11:33.678Z,99.90
2023-02-24T12:14:12.000Z,99.90
2023-02-24T12:16:45.825Z,99.90
2023-02-24T12:19:20.102Z,99.90
2023-02-24T12:21:52.716Z,99.90
2023-02-24T12:24:21.443Z,99.90
2023-02-24T12:26:55.755Z,99.90
2023-02-24T12:29:48.706Z,99.90
2023-02-24T12:32:25.338Z,99.90
2023-02-24T12:35:06.987Z,99.90
2023-02-24T12:37:51.736Z,99.90
2023-02-24T12:40:28.234Z,99.90
2023-02-24T12:43:03.718Z,99.90
2023-02-24T12:45:41.480Z,99.90
2023-02-24T12:48:20.766Z,99.90
2023-02-24T12:50:54.673Z,99.90
2023-02-24T12:53:28.912Z,99.90
2023-02-24T12:56:04.460Z,99.90
2023-02-24T12:58:35.845Z,99.90
2023-02-24T13:01:13.003Z,99.90
2023-02-24T13:04:01.176Z,99.90
2023-02-24T13:06:42.272Z,99.90
2023-02-24T13:09:15.508Z,99.90
2023-02-24T13:11:47.244Z,99.90
2023-02-24T13:14:22.274Z,99.90
2023-02-24T13:16:50.672Z,99.90
2023-02-24T13:19:21.286Z,99.90
2023-02-24T13:22:09.872Z,99.90
2023-02-24T13:24:39.009Z,99.90
2023-02-24T13:27:09.142Z,99.90
2023-02-24T13:29:45.326Z,99.90
2023-02-24T13:32:29.017Z,99.90
2023-02-24T13:34:58.866Z,99.90
2023-02-24T13:37:34.580Z,99.90
2023-02-24T13:40:16.502Z,99.90
2023-02-24T13:42:46.112Z,99.90
2023-02-24T13:45:21.254Z,99.90
2023-02-24T13:48:16.364Z,99.90
2023-02-24T13:50:55.449Z,99.90
2023-02-24T13:53:33.351Z,99.50
2023-02-24T13:56:21.796Z,99.80
2023-02-24T13:59:24.700Z,99.80
2023-02-24T14:01:59.056Z,99.90
2023-02-24T14:04:29.668Z,99.50
2023-02-24T14:07:00.586Z,99.50
2023-02-24T14:09:33.961Z,99.50
2023-02-24T14:12:05.392Z,99.30
2023-02-24T14:14:33.910Z,99.20
2023-02-24T14:17:02.115Z,99.20
2023-02-24T14:19:30.442Z,99.30
2023-02-24T14:22:00.252Z,99.30
2023-02-24T14:24:30.335Z,99.50
2023-02-24T14:27:00.774Z,99.10
2023-02-24T14:29:32.046Z,99.10
2023-02-24T14:32:00.929Z,99.70
2023-02-24T14:34:32.288Z,99.90
2023-02-24T14:37:02.287Z,99.90
2023-02-24T14:39:34.307Z,99.90
2023-02-24T14:42:12.703Z,99.90
2023-02-24T14:44:43.301Z,99.90
2023-02-24T14:47:14.355Z,99.90
2023-02-24T14:49:43.282Z,99.90
2023-02-24T14:52:15.700Z,99.90
2023-02-24T14:54:49.191Z,99.90
2023-02-24T14:57:20.587Z,99.90
2023-02-24T14:59:51.918Z,99.90
2023-02-24T15:02:24.643Z,99.90
2023-02-24T15:04:55.082Z,99.90
2023-02-24T15:07:26.123Z,99.90
2023-02-24T15:09:56.128Z,99.90
2023-02-24T15:12:28.251Z,99.90
2023-02-24T15:14:59.105Z,99.90
2023-02-24T15:17:27.698Z,99.90
2023-02-24T15:19:56.104Z,99.90
2023-02-24T15:22:28.035Z,99.90
2023-02-24T15:25:10.703Z,99.90
2023-02-24T15:27:38.933Z,99.90
2023-02-24T15:30:09.647Z,99.90
2023-02-24T15:32:39.043Z,99.90
2023-02-24T15:35:08.583Z,99.90
2023-02-24T15:37:42.676Z,99.90
2023-02-24T15:40:20.919Z,99.90
2023-02-24T15:42:54.184Z,99.90
2023-02-24T15:45:30.076Z,99.90
2023-02-24T15:48:00.322Z,99.90
2023-02-24T15:50:29.866Z,99.90
2023-02-24T15:53:00.603Z,99.90
2023-02-24T15:55:32.652Z,99.90
2023-02-24T15:58:03.398Z,99.90
2023-02-24T16:00:32.460Z,99.90
2023-02-24T16:03:00.770Z,99.90
2023-02-24T16:05:29.057Z,99.90
2023-02-24T16:07:57.429Z,99.90
2023-02-24T16:10:27.939Z,99.90
2023-02-24T16:12:59.831Z,99.90
2023-02-24T16:15:29.883Z,99.90
2023-02-24T16:17:58.702Z,99.90
2023-02-24T16:20:31.987Z,99.90
2023-02-24T16:23:01.632Z,99.90
2023-02-24T16:25:30.633Z,99.90
2023-02-24T16:28:00.313Z,99.90
2023-02-24T16:30:30.964Z,99.90
2023-02-24T16:33:00.249Z,99.90
2023-02-24T16:35:29.442Z,99.90
2023-02-24T16:37:57.741Z,99.90
2023-02-24T16:40:28.025Z,99.90
2023-02-24T16:42:56.339Z,99.90
2023-02-24T16:45:28.347Z,99.90
2023-02-24T16:47:59.120Z,99.90
2023-02-24T16:50:33.443Z,99.90
2023-02-24T16:53:01.871Z,99.90
2023-02-24T16:55:30.058Z,99.90
2023-02-24T16:57:58.431Z,99.90
2023-02-24T17:00:28.210Z,99.90
2023-02-24T17:02:56.558Z,99.90
2023-02-24T17:05:26.319Z,99.90
2023-02-24T17:07:56.128Z,99.90
2023-02-24T17:10:25.306Z,99.90
2023-02-24T17:12:53.731Z,99.90
2023-02-24T17:15:23.569Z,99.90
2023-02-24T17:17:53.217Z,99.90
2023-02-24T17:20:22.004Z,99.90
2023-02-24T17:22:50.381Z,99.90
2023-02-24T17:25:19.921Z,99.90
2023-02-24T17:27:48.468Z,99.90
2023-02-24T17:30:18.826Z,99.90
2023-02-24T17:32:47.254Z,99.90
2023-02-24T17:35:17.117Z,99.90
2023-02-24T17:37:45.675Z,99.90
2023-02-24T17:40:14.350Z,99.90
2023-02-24T17:42:42.664Z,99.90
2023-02-24T17:45:12.806Z,99.90
2023-02-24T17:47:41.453Z,99.90
2023-02-24T17:50:11.741Z,99.90
2023-02-24T17:52:41.742Z,99.90
2023-02-24T17:55:10.635Z,99.90
2023-02-24T17:57:39.701Z,99.90
2023-02-24T18:00:09.749Z,99.90
2023-02-24T18:02:38.607Z,99.90
2023-02-24T18:05:07.367Z,99.90
2023-02-24T18:07:35.721Z,99.90
2023-02-24T18:10:06.535Z,99.90
2023-02-24T18:12:34.879Z,99.90
2023-02-24T18:15:08.792Z,99.90
2023-02-24T18:17:38.307Z,99.90
2023-02-24T18:20:08.656Z,99.90
2023-02-24T18:22:37.191Z,99.40
2023-02-24T18:25:07.830Z,99.40
2023-02-24T18:27:36.160Z,99.60
2023-02-24T18:30:06.964Z,99.50
2023-02-24T18:32:35.395Z,99.50
2023-02-24T18:35:03.761Z,99.90
2023-02-24T18:37:31.948Z,99.90
2023-02-24T18:40:00.183Z,99.90
2023-02-24T18:42:29.940Z,99.80
2023-02-24T18:44:58.198Z,99.50
2023-02-24T18:47:26.540Z,99.10
2023-02-24T18:49:54.801Z,98.80
2023-02-24T18:52:23.146Z,98.80
2023-02-24T18:54:53.124Z,98.60
2023-02-24T18:57:21.441Z,98.50
2023-02-24T18:59:51.824Z,98.50
2023-02-24T19:02:20.111Z,98.50
2023-02-24T19:04:48.359Z,98.50
2023-02-24T19:07:16.708Z,98.40
2023-02-24T19:09:47.954Z,98.50
2023-02-24T19:12:17.158Z,98.80
2023-02-24T19:14:45.702Z,99.40
2023-02-24T19:17:15.372Z,99.60
2023-02-24T19:19:43.825Z,99.80
2023-02-24T19:22:12.037Z,99.90
2023-02-24T19:24:40.308Z,99.90
2023-02-24T19:27:08.784Z,99.90
2023-02-24T19:29:37.085Z,99.90
2023-02-24T19:32:05.477Z,99.90
2023-02-24T19:34:35.339Z,99.90
2023-02-24T19:37:03.626Z,99.90
2023-02-24T19:39:31.904Z,99.90
2023-02-24T19:42:00.169Z,99.90
2023-02-24T19:44:28.399Z,99.90
2023-02-24T19:46:57.166Z,99.90
2023-02-24T19:49:25.510Z,99.90
2023-02-24T19:51:56.131Z,99.90
2023-02-24T19:54:24.999Z,99.90
2023-02-24T19:56:55.683Z,99.90
2023-02-24T19:59:24.192Z,99.90
2023-02-24T20:01:54.305Z,99.90
2023-02-24T20:04:23.086Z,99.90
2023-02-24T20:06:51.554Z,99.90
2023-02-24T20:09:22.331Z,99.90
2023-02-24T20:11:51.685Z,99.90
2023-02-24T20:14:21.014Z,99.90
2023-02-24T20:16:49.474Z,99.90
2023-02-24T20:19:18.473Z,99.90
2023-02-24T20:21:47.497Z,99.90
2023-02-24T20:24:17.053Z,99.90
2023-02-24T20:26:49.706Z,99.90
2023-02-24T20:29:19.548Z,99.90
2023-02-24T20:31:48.132Z,99.90
2023-02-24T20:34:16.932Z,99.70
2023-02-24T20:36:45.254Z,99.40
2023-02-24T20:39:13.594Z,99.10
2023-02-24T20:41:42.104Z,99.40
2023-02-24T20:44:12.308Z,99.10
2023-02-24T20:46:40.708Z,99.00
2023-02-24T20:49:10.494Z,99.10
2023-02-24T20:51:39.489Z,99.10
2023-02-24T20:54:08.980Z,99.00
2023-02-24T20:56:38.870Z,98.90
2023-02-24T20:59:09.085Z,99.00
2023-02-24T21:01:39.420Z,99.10
2023-02-24T21:04:08.062Z,99.40
2023-02-24T21:06:36.608Z,99.50
2023-02-24T21:09:05.590Z,99.50
2023-02-24T21:11:34.240Z,99.50
2023-02-24T21:14:02.804Z,99.70
2023-02-24T21:16:31.183Z,99.60
2023-02-24T21:19:00.874Z,99.80
2023-02-24T21:21:29.174Z,99.80
2023-02-24T21:23:57.846Z,99.80
2023-02-24T21:26:29.196Z,99.80
2023-02-24T21:28:59.338Z,99.70
2023-02-24T21:31:27.914Z,99.60
2023-02-24T21:33:56.816Z,99.60
2023-02-24T21:36:28.043Z,99.80
2023-02-24T21:38:56.873Z,99.90
2023-02-24T21:41:25.148Z,99.90
2023-02-24T21:43:55.329Z,99.90
2023-02-24T21:46:28.085Z,99.90
2023-02-24T21:48:57.441Z,99.90
2023-02-24T21:51:28.467Z,99.90
2023-02-24T21:53:57.487Z,99.90
2023-02-24T21:56:27.423Z,99.90
2023-02-24T21:58:57.942Z,99.90
2023-02-24T22:01:28.395Z,99.90
2023-02-24T22:03:57.712Z,99.90
2023-02-24T22:06:31.492Z,99.90
2023-02-24T22:09:00.524Z,99.90
2023-02-24T22:11:30.449Z,99.90
2023-02-24T22:13:59.416Z,99.90
2023-02-24T22:16:28.034Z,99.90
2023-02-24T22:18:56.841Z,99.90
2023-02-24T22:21:28.633Z,99.90
2023-02-24T22:23:59.345Z,99.90
2023-02-24T22:26:28.090Z,99.90
2023-02-24T22:28:57.071Z,99.90
2023-02-24T22:31:27.671Z,99.90
2023-02-24T22:33:56.058Z,99.90
2023-02-24T22:36:26.286Z,99.90
2023-02-24T22:38:56.497Z,99.90
2023-02-24T22:41:26.330Z,99.90
2023-02-24T22:43:55.082Z,99.90
2023-02-24T22:46:25.727Z,99.90
2023-02-24T22:48:54.453Z,99.90
2023-02-24T22:51:22.697Z,99.90
2023-02-24T22:53:51.886Z,99.90
2023-02-24T22:56:23.306Z,99.90
2023-02-24T22:58:51.926Z,99.90
2023-02-24T23:01:22.664Z,99.90
2023-02-24T23:03:51.228Z,99.90
2023-02-24T23:06:21.638Z,99.90
2023-02-24T23:08:51.768Z,99.90
2023-02-24T23:11:24.941Z,99.90
2023-02-24T23:13:54.111Z,99.90
2023-02-24T23:16:24.162Z,99.90
2023-02-24T23:18:53.915Z,99.90
2023-02-24T23:21:24.016Z,99.90
2023-02-24T23:23:56.990Z,99.90
2023-02-24T23:26:30.949Z,99.90
2023-02-24T23:28:59.663Z,99.90
2023-02-24T23:31:28.587Z,99.90
2023-02-24T23:33:56.925Z,99.90
2023-02-24T23:36:26.257Z,99.90
2023-02-24T23:38:54.635Z,99.90
2023-02-24T23:41:22.925Z,99.90
2023-02-24T23:43:52.636Z,99.90
2023-02-24T23:46:21.615Z,99.90
2023-02-24T23:48:52.522Z,99.90
2023-02-24T23:51:21.507Z,99.90
2023-02-24T23:53:50.110Z,99.90
2023-02-24T23:56:20.402Z,99.90
2023-02-24T23:58:52.981Z,99.90
